sensor_id;sensor_type;location;lat;lon;timestamp;temperature;humidity
27544;DHT22;17996;51.056;3.656;2022-07-11T00:01:43;20.10;99.90
27544;DHT22;17996;51.056;3.656;2022-07-11T00:04:09;20.10;99.90
27544;DHT22;17996;51.056;3.656;2022-07-11T00:06:35;20.00;99.90
27544;DHT22;17996;51.056;3.656;2022-07-11T00:09:00;20.00;99.90
27544;DHT22;17996;51.056;3.656;2022-07-11T00:11:26;20.00;99.90
27544;DHT22;17996;51.056;3.656;2022-07-11T00:13:52;20.00;99.90
27544;DHT22;17996;51.056;3.656;2022-07-11T00:16:17;20.00;99.90
27544;DHT22;17996;51.056;3.656;2022-07-11T00:18:43;19.90;99.90
27544;DHT22;17996;51.056;3.656;2022-07-11T00:21:10;19.80;99.90
27544;DHT22;17996;51.056;3.656;2022-07-11T00:23:37;19.70;99.90
27544;DHT22;17996;51.056;3.656;2022-07-11T00:26:03;19.70;99.90
27544;DHT22;17996;51.056;3.656;2022-07-11T00:28:29;19.60;99.90
27544;DHT22;17996;51.056;3.656;2022-07-11T00:30:56;19.60;99.90
27544;DHT22;17996;51.056;3.656;2022-07-11T00:33:21;19.60;99.90
27544;DHT22;17996;51.056;3.656;2022-07-11T00:35:47;19.60;99.90
27544;DHT22;17996;51.056;3.656;2022-07-11T00:38:13;19.60;99.90
27544;DHT22;17996;51.056;3.656;2022-07-11T00:40:39;19.50;99.90
27544;DHT22;17996;51.056;3.656;2022-07-11T00:43:06;19.50;99.90
27544;DHT22;17996;51.056;3.656;2022-07-11T00:45:32;19.40;99.90
27544;DHT22;17996;51.056;3.656;2022-07-11T00:47:58;19.50;99.90
27544;DHT22;17996;51.056;3.656;2022-07-11T00:50:25;19.40;99.90
27544;DHT22;17996;51.056;3.656;2022-07-11T00:52:51;19.40;99.90
27544;DHT22;17996;51.056;3.656;2022-07-11T00:55:18;19.30;99.90
27544;DHT22;17996;51.056;3.656;2022-07-11T00:57:45;19.30;99.90
27544;DHT22;17996;51.056;3.656;2022-07-11T01:00:12;19.40;99.90
27544;DHT22;17996;51.056;3.656;2022-07-11T01:02:39;19.20;99.90
27544;DHT22;17996;51.056;3.656;2022-07-11T01:05:05;19.20;99.90
27544;DHT22;17996;51.056;3.656;2022-07-11T01:07:32;19.20;99.90
27544;DHT22;17996;51.056;3.656;2022-07-11T01:09:58;19.20;99.90
27544;DHT22;17996;51.056;3.656;2022-07-11T01:12:24;19.20;99.90
27544;DHT22;17996;51.056;3.656;2022-07-11T01:14:51;19.10;99.90
27544;DHT22;17996;51.056;3.656;2022-07-11T01:17:18;19.10;99.90
27544;DHT22;17996;51.056;3.656;2022-07-11T01:19:44;19.10;99.90
27544;DHT22;17996;51.056;3.656;2022-07-11T01:22:10;19.10;99.90
27544;DHT22;17996;51.056;3.656;2022-07-11T01:24:39;19.00;99.90
27544;DHT22;17996;51.056;3.656;2022-07-11T01:27:05;19.00;99.90
27544;DHT22;17996;51.056;3.656;2022-07-11T01:29:31;18.90;99.90
27544;DHT22;17996;51.056;3.656;2022-07-11T01:31:56;19.00;99.90
27544;DHT22;17996;51.056;3.656;2022-07-11T01:34:22;18.90;99.90
27544;DHT22;17996;51.056;3.656;2022-07-11T01:36:48;18.90;99.90
27544;DHT22;17996;51.056;3.656;2022-07-11T01:39:13;18.80;99.90
27544;DHT22;17996;51.056;3.656;2022-07-11T01:41:39;18.80;99.90
27544;DHT22;17996;51.056;3.656;2022-07-11T01:44:05;18.70;99.90
27544;DHT22;17996;51.056;3.656;2022-07-11T01:46:31;18.70;99.90
27544;DHT22;17996;51.056;3.656;2022-07-11T01:48:57;18.70;99.90
27544;DHT22;17996;51.056;3.656;2022-07-11T01:51:23;18.70;99.90
27544;DHT22;17996;51.056;3.656;2022-07-11T01:53:49;18.60;99.90
27544;DHT22;17996;51.056;3.656;2022-07-11T01:56:14;18.60;99.90
27544;DHT22;17996;51.056;3.656;2022-07-11T01:58:40;18.60;99.90
27544;DHT22;17996;51.056;3.656;2022-07-11T02:01:06;18.50;99.90
27544;DHT22;17996;51.056;3.656;2022-07-11T02:03:31;18.50;99.90
27544;DHT22;17996;51.056;3.656;2022-07-11T02:05:57;18.50;99.90
27544;DHT22;17996;51.056;3.656;2022-07-11T02:08:23;18.50;99.90
27544;DHT22;17996;51.056;3.656;2022-07-11T02:10:51;18.50;99.90
27544;DHT22;17996;51.056;3.656;2022-07-11T02:13:18;18.40;99.90
27544;DHT22;17996;51.056;3.656;2022-07-11T02:15:45;18.40;99.90
27544;DHT22;17996;51.056;3.656;2022-07-11T02:18:11;18.40;99.90
27544;DHT22;17996;51.056;3.656;2022-07-11T02:20:39;18.40;99.90
27544;DHT22;17996;51.056;3.656;2022-07-11T02:23:05;18.30;99.90
27544;DHT22;17996;51.056;3.656;2022-07-11T02:25:32;18.30;99.90
27544;DHT22;17996;51.056;3.656;2022-07-11T02:27:58;18.30;99.90
27544;DHT22;17996;51.056;3.656;2022-07-11T02:30:24;18.20;99.90
27544;DHT22;17996;51.056;3.656;2022-07-11T02:32:51;18.20;99.90
27544;DHT22;17996;51.056;3.656;2022-07-11T02:35:18;18.30;99.90
27544;DHT22;17996;51.056;3.656;2022-07-11T02:37:44;18.20;99.90
27544;DHT22;17996;51.056;3.656;2022-07-11T02:40:10;18.20;99.90
27544;DHT22;17996;51.056;3.656;2022-07-11T02:42:36;18.10;99.90
27544;DHT22;17996;51.056;3.656;2022-07-11T02:45:05;18.10;99.90
27544;DHT22;17996;51.056;3.656;2022-07-11T02:47:32;18.10;99.90
27544;DHT22;17996;51.056;3.656;2022-07-11T02:49:58;18.00;99.90
27544;DHT22;17996;51.056;3.656;2022-07-11T02:52:23;18.00;99.90
27544;DHT22;17996;51.056;3.656;2022-07-11T02:54:49;18.00;99.90
27544;DHT22;17996;51.056;3.656;2022-07-11T02:57:15;18.00;99.90
27544;DHT22;17996;51.056;3.656;2022-07-11T02:59:40;18.00;99.90
27544;DHT22;17996;51.056;3.656;2022-07-11T03:02:06;18.00;99.90
27544;DHT22;17996;51.056;3.656;2022-07-11T03:04:33;18.00;99.90
27544;DHT22;17996;51.056;3.656;2022-07-11T03:06:58;18.00;99.90
27544;DHT22;17996;51.056;3.656;2022-07-11T03:09:24;17.90;99.90
27544;DHT22;17996;51.056;3.656;2022-07-11T03:11:50;17.90;99.90
27544;DHT22;17996;51.056;3.656;2022-07-11T03:14:16;18.00;99.90
27544;DHT22;17996;51.056;3.656;2022-07-11T03:16:42;17.90;99.90
27544;DHT22;17996;51.056;3.656;2022-07-11T03:19:08;17.90;99.90
27544;DHT22;17996;51.056;3.656;2022-07-11T03:21:33;17.80;99.90
27544;DHT22;17996;51.056;3.656;2022-07-11T03:23:59;17.80;99.90
27544;DHT22;17996;51.056;3.656;2022-07-11T03:26:25;17.70;99.90
27544;DHT22;17996;51.056;3.656;2022-07-11T03:28:51;17.70;99.90
27544;DHT22;17996;51.056;3.656;2022-07-11T03:31:17;17.70;99.90
27544;DHT22;17996;51.056;3.656;2022-07-11T03:33:44;17.60;99.90
27544;DHT22;17996;51.056;3.656;2022-07-11T03:36:10;17.60;99.90
27544;DHT22;17996;51.056;3.656;2022-07-11T03:38:36;17.60;99.90
27544;DHT22;17996;51.056;3.656;2022-07-11T03:41:03;17.50;99.90
27544;DHT22;17996;51.056;3.656;2022-07-11T03:43:30;17.50;99.90
27544;DHT22;17996;51.056;3.656;2022-07-11T03:45:56;17.50;99.90
27544;DHT22;17996;51.056;3.656;2022-07-11T03:48:22;17.50;99.90
27544;DHT22;17996;51.056;3.656;2022-07-11T03:50:47;17.50;99.90
27544;DHT22;17996;51.056;3.656;2022-07-11T03:53:14;17.40;99.90
27544;DHT22;17996;51.056;3.656;2022-07-11T03:55:40;17.50;99.90
27544;DHT22;17996;51.056;3.656;2022-07-11T03:58:06;17.40;99.90
27544;DHT22;17996;51.056;3.656;2022-07-11T04:00:32;17.40;99.90
27544;DHT22;17996;51.056;3.656;2022-07-11T04:02:57;17.40;99.90
27544;DHT22;17996;51.056;3.656;2022-07-11T04:05:24;17.40;99.90
27544;DHT22;17996;51.056;3.656;2022-07-11T04:07:49;17.40;99.90
27544;DHT22;17996;51.056;3.656;2022-07-11T04:10:15;17.40;99.90
27544;DHT22;17996;51.056;3.656;2022-07-11T04:12:43;17.40;99.90
27544;DHT22;17996;51.056;3.656;2022-07-11T04:15:09;17.40;99.90
27544;DHT22;17996;51.056;3.656;2022-07-11T04:17:35;17.40;99.90
27544;DHT22;17996;51.056;3.656;2022-07-11T04:20:01;17.40;99.90
27544;DHT22;17996;51.056;3.656;2022-07-11T04:22:29;17.40;99.90
27544;DHT22;17996;51.056;3.656;2022-07-11T04:24:54;17.40;99.90
27544;DHT22;17996;51.056;3.656;2022-07-11T04:27:20;17.40;99.90
27544;DHT22;17996;51.056;3.656;2022-07-11T04:29:46;17.40;99.90
27544;DHT22;17996;51.056;3.656;2022-07-11T04:32:12;17.40;99.90
27544;DHT22;17996;51.056;3.656;2022-07-11T04:34:37;17.40;99.90
27544;DHT22;17996;51.056;3.656;2022-07-11T04:37:03;17.40;99.90
27544;DHT22;17996;51.056;3.656;2022-07-11T04:39:30;17.40;99.90
27544;DHT22;17996;51.056;3.656;2022-07-11T04:41:58;17.40;99.90
27544;DHT22;17996;51.056;3.656;2022-07-11T04:44:24;17.40;99.90
27544;DHT22;17996;51.056;3.656;2022-07-11T04:46:49;17.40;99.90
27544;DHT22;17996;51.056;3.656;2022-07-11T04:49:16;17.40;99.90
27544;DHT22;17996;51.056;3.656;2022-07-11T04:51:42;17.40;99.90
27544;DHT22;17996;51.056;3.656;2022-07-11T04:54:07;17.50;99.90
27544;DHT22;17996;51.056;3.656;2022-07-11T04:56:34;17.50;99.90
27544;DHT22;17996;51.056;3.656;2022-07-11T04:59:00;17.50;99.90
27544;DHT22;17996;51.056;3.656;2022-07-11T05:01:25;17.50;99.90
27544;DHT22;17996;51.056;3.656;2022-07-11T05:03:56;17.60;99.90
27544;DHT22;17996;51.056;3.656;2022-07-11T05:06:22;17.60;99.90
27544;DHT22;17996;51.056;3.656;2022-07-11T05:08:47;17.60;99.90
27544;DHT22;17996;51.056;3.656;2022-07-11T05:11:13;17.70;99.90
27544;DHT22;17996;51.056;3.656;2022-07-11T05:13:39;17.60;99.90
27544;DHT22;17996;51.056;3.656;2022-07-11T05:16:05;17.70;99.90
27544;DHT22;17996;51.056;3.656;2022-07-11T05:18:31;17.70;99.90
27544;DHT22;17996;51.056;3.656;2022-07-11T05:20:57;17.70;99.90
27544;DHT22;17996;51.056;3.656;2022-07-11T05:23:23;17.70;99.90
27544;DHT22;17996;51.056;3.656;2022-07-11T05:25:48;17.70;99.90
27544;DHT22;17996;51.056;3.656;2022-07-11T05:28:14;17.80;99.90
27544;DHT22;17996;51.056;3.656;2022-07-11T05:30:40;17.80;99.90
27544;DHT22;17996;51.056;3.656;2022-07-11T05:33:06;17.80;99.90
27544;DHT22;17996;51.056;3.656;2022-07-11T05:35:31;17.80;99.90
27544;DHT22;17996;51.056;3.656;2022-07-11T05:37:57;17.90;99.90
27544;DHT22;17996;51.056;3.656;2022-07-11T05:40:23;18.00;99.90
27544;DHT22;17996;51.056;3.656;2022-07-11T05:42:48;18.00;99.90
27544;DHT22;17996;51.056;3.656;2022-07-11T05:45:14;18.10;99.90
27544;DHT22;17996;51.056;3.656;2022-07-11T05:47:40;18.20;99.90
27544;DHT22;17996;51.056;3.656;2022-07-11T05:50:06;18.20;99.90
27544;DHT22;17996;51.056;3.656;2022-07-11T05:52:32;18.30;99.90
27544;DHT22;17996;51.056;3.656;2022-07-11T05:54:58;18.30;99.90
27544;DHT22;17996;51.056;3.656;2022-07-11T05:57:24;18.30;99.90
27544;DHT22;17996;51.056;3.656;2022-07-11T05:59:50;18.40;99.90
27544;DHT22;17996;51.056;3.656;2022-07-11T06:02:16;18.40;99.90
27544;DHT22;17996;51.056;3.656;2022-07-11T06:04:42;18.40;99.90
27544;DHT22;17996;51.056;3.656;2022-07-11T06:07:11;18.50;99.90
27544;DHT22;17996;51.056;3.656;2022-07-11T06:09:37;18.60;99.90
27544;DHT22;17996;51.056;3.656;2022-07-11T06:12:03;18.60;99.90
27544;DHT22;17996;51.056;3.656;2022-07-11T06:14:29;18.60;99.90
27544;DHT22;17996;51.056;3.656;2022-07-11T06:16:54;18.70;99.90
27544;DHT22;17996;51.056;3.656;2022-07-11T06:19:20;18.70;99.90
27544;DHT22;17996;51.056;3.656;2022-07-11T06:21:46;18.80;99.90
27544;DHT22;17996;51.056;3.656;2022-07-11T06:24:12;18.80;99.90
27544;DHT22;17996;51.056;3.656;2022-07-11T06:26:38;18.90;99.90
27544;DHT22;17996;51.056;3.656;2022-07-11T06:29:03;18.90;99.90
27544;DHT22;17996;51.056;3.656;2022-07-11T06:31:29;19.00;99.90
27544;DHT22;17996;51.056;3.656;2022-07-11T06:33:55;19.00;99.90
27544;DHT22;17996;51.056;3.656;2022-07-11T06:36:21;19.10;99.90
27544;DHT22;17996;51.056;3.656;2022-07-11T06:38:51;19.10;99.90
27544;DHT22;17996;51.056;3.656;2022-07-11T06:41:16;19.20;99.90
27544;DHT22;17996;51.056;3.656;2022-07-11T06:43:42;19.30;99.90
27544;DHT22;17996;51.056;3.656;2022-07-11T06:46:08;19.30;99.90
27544;DHT22;17996;51.056;3.656;2022-07-11T06:48:34;19.30;99.90
27544;DHT22;17996;51.056;3.656;2022-07-11T06:50:59;19.40;99.90
27544;DHT22;17996;51.056;3.656;2022-07-11T06:53:25;19.40;99.90
27544;DHT22;17996;51.056;3.656;2022-07-11T06:55:51;19.40;99.90
27544;DHT22;17996;51.056;3.656;2022-07-11T06:58:16;19.40;99.90
27544;DHT22;17996;51.056;3.656;2022-07-11T07:01:02;19.40;99.90
27544;DHT22;17996;51.056;3.656;2022-07-11T07:03:29;19.50;99.90
27544;DHT22;17996;51.056;3.656;2022-07-11T07:05:56;19.40;99.90
27544;DHT22;17996;51.056;3.656;2022-07-11T07:08:28;19.40;99.90
27544;DHT22;17996;51.056;3.656;2022-07-11T07:10:54;19.50;99.90
27544;DHT22;17996;51.056;3.656;2022-07-11T07:13:21;19.50;99.90
27544;DHT22;17996;51.056;3.656;2022-07-11T07:15:51;19.60;99.90
27544;DHT22;17996;51.056;3.656;2022-07-11T07:18:17;19.60;99.90
27544;DHT22;17996;51.056;3.656;2022-07-11T07:20:43;19.70;99.90
27544;DHT22;17996;51.056;3.656;2022-07-11T07:23:09;19.70;99.90
27544;DHT22;17996;51.056;3.656;2022-07-11T07:25:35;19.80;99.90
27544;DHT22;17996;51.056;3.656;2022-07-11T07:28:01;19.80;99.90
27544;DHT22;17996;51.056;3.656;2022-07-11T07:30:27;19.90;99.90
27544;DHT22;17996;51.056;3.656;2022-07-11T07:32:52;19.90;99.90
27544;DHT22;17996;51.056;3.656;2022-07-11T07:35:18;20.00;99.90
27544;DHT22;17996;51.056;3.656;2022-07-11T07:37:43;20.00;99.90
27544;DHT22;17996;51.056;3.656;2022-07-11T07:40:09;20.00;99.90
27544;DHT22;17996;51.056;3.656;2022-07-11T07:42:35;20.10;99.90
27544;DHT22;17996;51.056;3.656;2022-07-11T07:45:01;20.20;99.90
27544;DHT22;17996;51.056;3.656;2022-07-11T07:47:27;20.20;99.90
27544;DHT22;17996;51.056;3.656;2022-07-11T07:49:55;20.20;99.90
27544;DHT22;17996;51.056;3.656;2022-07-11T07:52:21;20.20;99.90
27544;DHT22;17996;51.056;3.656;2022-07-11T07:54:47;20.30;99.90
27544;DHT22;17996;51.056;3.656;2022-07-11T07:57:13;20.30;99.90
27544;DHT22;17996;51.056;3.656;2022-07-11T07:59:38;20.40;99.90
27544;DHT22;17996;51.056;3.656;2022-07-11T08:02:04;20.40;99.90
27544;DHT22;17996;51.056;3.656;2022-07-11T08:04:30;20.40;99.90
27544;DHT22;17996;51.056;3.656;2022-07-11T08:06:55;20.40;99.90
27544;DHT22;17996;51.056;3.656;2022-07-11T08:09:25;20.50;99.90
27544;DHT22;17996;51.056;3.656;2022-07-11T08:11:50;20.50;99.90
27544;DHT22;17996;51.056;3.656;2022-07-11T08:14:16;20.50;99.90
27544;DHT22;17996;51.056;3.656;2022-07-11T08:16:42;20.60;99.90
27544;DHT22;17996;51.056;3.656;2022-07-11T08:19:08;20.60;99.90
27544;DHT22;17996;51.056;3.656;2022-07-11T08:21:35;20.70;99.90
27544;DHT22;17996;51.056;3.656;2022-07-11T08:24:01;20.70;99.90
27544;DHT22;17996;51.056;3.656;2022-07-11T08:26:27;20.80;99.90
27544;DHT22;17996;51.056;3.656;2022-07-11T08:28:53;20.80;99.90
27544;DHT22;17996;51.056;3.656;2022-07-11T08:31:19;20.90;99.90
27544;DHT22;17996;51.056;3.656;2022-07-11T08:33:45;20.90;99.90
27544;DHT22;17996;51.056;3.656;2022-07-11T08:36:11;20.90;99.90
27544;DHT22;17996;51.056;3.656;2022-07-11T08:38:37;21.00;99.90
27544;DHT22;17996;51.056;3.656;2022-07-11T08:41:05;21.00;99.90
27544;DHT22;17996;51.056;3.656;2022-07-11T08:43:31;21.10;99.90
27544;DHT22;17996;51.056;3.656;2022-07-11T08:45:57;21.10;99.90
27544;DHT22;17996;51.056;3.656;2022-07-11T08:48:23;21.10;99.90
27544;DHT22;17996;51.056;3.656;2022-07-11T08:50:50;21.10;99.90
27544;DHT22;17996;51.056;3.656;2022-07-11T08:53:16;21.10;99.90
27544;DHT22;17996;51.056;3.656;2022-07-11T08:55:42;21.20;99.90
27544;DHT22;17996;51.056;3.656;2022-07-11T08:58:09;21.20;99.90
27544;DHT22;17996;51.056;3.656;2022-07-11T09:00:35;21.20;99.90
27544;DHT22;17996;51.056;3.656;2022-07-11T09:03:02;21.30;99.90
27544;DHT22;17996;51.056;3.656;2022-07-11T09:05:28;21.40;99.90
27544;DHT22;17996;51.056;3.656;2022-07-11T09:07:56;21.40;99.90
27544;DHT22;17996;51.056;3.656;2022-07-11T09:10:21;21.40;99.90
27544;DHT22;17996;51.056;3.656;2022-07-11T09:13:08;21.50;99.90
27544;DHT22;17996;51.056;3.656;2022-07-11T09:15:46;21.60;99.90
27544;DHT22;17996;51.056;3.656;2022-07-11T09:18:37;21.60;99.90
27544;DHT22;17996;51.056;3.656;2022-07-11T09:21:05;21.70;99.90
27544;DHT22;17996;51.056;3.656;2022-07-11T09:23:51;21.70;99.90
27544;DHT22;17996;51.056;3.656;2022-07-11T09:26:47;21.70;99.90
27544;DHT22;17996;51.056;3.656;2022-07-11T09:29:21;21.80;99.90
27544;DHT22;17996;51.056;3.656;2022-07-11T09:31:50;21.90;99.90
27544;DHT22;17996;51.056;3.656;2022-07-11T09:34:22;21.90;99.90
27544;DHT22;17996;51.056;3.656;2022-07-11T09:36:55;22.00;99.90
27544;DHT22;17996;51.056;3.656;2022-07-11T09:39:26;22.00;99.90
27544;DHT22;17996;51.056;3.656;2022-07-11T09:41:52;22.10;99.90
27544;DHT22;17996;51.056;3.656;2022-07-11T09:44:29;22.10;99.90
27544;DHT22;17996;51.056;3.656;2022-07-11T09:46:59;22.10;99.90
27544;DHT22;17996;51.056;3.656;2022-07-11T09:49:37;22.10;99.90
27544;DHT22;17996;51.056;3.656;2022-07-11T09:52:13;22.20;99.90
27544;DHT22;17996;51.056;3.656;2022-07-11T09:54:56;22.20;99.90
27544;DHT22;17996;51.056;3.656;2022-07-11T09:57:40;22.20;99.90
27544;DHT22;17996;51.056;3.656;2022-07-11T10:00:08;22.30;99.90
27544;DHT22;17996;51.056;3.656;2022-07-11T10:02:34;22.30;99.90
27544;DHT22;17996;51.056;3.656;2022-07-11T10:05:02;22.40;99.90
27544;DHT22;17996;51.056;3.656;2022-07-11T10:07:28;22.40;99.90
27544;DHT22;17996;51.056;3.656;2022-07-11T10:09:54;22.40;99.90
27544;DHT22;17996;51.056;3.656;2022-07-11T10:12:21;22.40;99.90
27544;DHT22;17996;51.056;3.656;2022-07-11T10:14:48;22.40;99.90
27544;DHT22;17996;51.056;3.656;2022-07-11T10:23:01;22.50;99.90
27544;DHT22;17996;51.056;3.656;2022-07-11T10:28:25;22.60;99.90
27544;DHT22;17996;51.056;3.656;2022-07-11T10:30:55;22.70;99.90
27544;DHT22;17996;51.056;3.656;2022-07-11T10:33:25;22.70;99.90
27544;DHT22;17996;51.056;3.656;2022-07-11T10:35:52;22.80;99.90
27544;DHT22;17996;51.056;3.656;2022-07-11T10:38:22;22.80;99.90
27544;DHT22;17996;51.056;3.656;2022-07-11T10:40:51;22.80;99.90
27544;DHT22;17996;51.056;3.656;2022-07-11T10:43:39;22.80;99.90
27544;DHT22;17996;51.056;3.656;2022-07-11T10:46:07;22.90;99.90
27544;DHT22;17996;51.056;3.656;2022-07-11T10:51:51;23.00;99.90
27544;DHT22;17996;51.056;3.656;2022-07-11T10:59:34;23.10;99.90
27544;DHT22;17996;51.056;3.656;2022-07-11T11:02:20;23.10;99.90
27544;DHT22;17996;51.056;3.656;2022-07-11T11:04:48;23.30;99.90
27544;DHT22;17996;51.056;3.656;2022-07-11T11:10:07;23.40;99.90
27544;DHT22;17996;51.056;3.656;2022-07-11T11:23:39;23.70;99.90
27544;DHT22;17996;51.056;3.656;2022-07-11T11:26:19;23.60;99.90
27544;DHT22;17996;51.056;3.656;2022-07-11T11:28:58;23.60;99.90
27544;DHT22;17996;51.056;3.656;2022-07-11T11:31:25;23.70;99.90
27544;DHT22;17996;51.056;3.656;2022-07-11T11:33:51;23.80;99.90
27544;DHT22;17996;51.056;3.656;2022-07-11T11:36:19;23.90;99.90
27544;DHT22;17996;51.056;3.656;2022-07-11T11:38:46;23.90;99.90
27544;DHT22;17996;51.056;3.656;2022-07-11T11:41:22;23.90;99.90
27544;DHT22;17996;51.056;3.656;2022-07-11T11:43:52;24.00;99.90
27544;DHT22;17996;51.056;3.656;2022-07-11T11:46:18;23.90;99.90
27544;DHT22;17996;51.056;3.656;2022-07-11T11:48:44;24.00;99.90
27544;DHT22;17996;51.056;3.656;2022-07-11T11:51:17;24.00;99.90
27544;DHT22;17996;51.056;3.656;2022-07-11T11:53:55;24.10;99.90
27544;DHT22;17996;51.056;3.656;2022-07-11T11:56:26;24.20;99.90
27544;DHT22;17996;51.056;3.656;2022-07-11T12:01:35;24.30;99.90
27544;DHT22;17996;51.056;3.656;2022-07-11T12:04:05;24.30;99.90
27544;DHT22;17996;51.056;3.656;2022-07-11T12:06:39;24.20;99.90
27544;DHT22;17996;51.056;3.656;2022-07-11T12:09:20;24.20;99.90
27544;DHT22;17996;51.056;3.656;2022-07-11T12:12:09;24.30;99.90
27544;DHT22;17996;51.056;3.656;2022-07-11T12:14:53;24.20;99.90
27544;DHT22;17996;51.056;3.656;2022-07-11T12:17:24;24.30;99.90
27544;DHT22;17996;51.056;3.656;2022-07-11T12:19:50;24.30;99.90
27544;DHT22;17996;51.056;3.656;2022-07-11T12:22:16;24.40;99.90
27544;DHT22;17996;51.056;3.656;2022-07-11T12:24:51;24.40;99.90
27544;DHT22;17996;51.056;3.656;2022-07-11T12:27:22;24.50;99.90
27544;DHT22;17996;51.056;3.656;2022-07-11T12:29:48;24.40;99.90
27544;DHT22;17996;51.056;3.656;2022-07-11T12:32:20;24.40;99.90
27544;DHT22;17996;51.056;3.656;2022-07-11T12:34:49;24.50;99.90
27544;DHT22;17996;51.056;3.656;2022-07-11T12:37:16;24.60;99.90
27544;DHT22;17996;51.056;3.656;2022-07-11T12:39:52;24.60;99.90
27544;DHT22;17996;51.056;3.656;2022-07-11T12:42:21;24.70;99.90
27544;DHT22;17996;51.056;3.656;2022-07-11T12:50:35;24.80;99.90
27544;DHT22;17996;51.056;3.656;2022-07-11T12:53:07;24.80;99.90
27544;DHT22;17996;51.056;3.656;2022-07-11T12:55:34;24.80;99.90
27544;DHT22;17996;51.056;3.656;2022-07-11T12:58:11;24.90;99.90
27544;DHT22;17996;51.056;3.656;2022-07-11T13:00:55;24.90;99.90
27544;DHT22;17996;51.056;3.656;2022-07-11T13:03:32;25.00;99.90
27544;DHT22;17996;51.056;3.656;2022-07-11T13:05:58;25.00;99.90
27544;DHT22;17996;51.056;3.656;2022-07-11T13:08:29;25.00;99.90
27544;DHT22;17996;51.056;3.656;2022-07-11T13:11:15;25.00;99.90
27544;DHT22;17996;51.056;3.656;2022-07-11T13:13:42;25.00;99.90
27544;DHT22;17996;51.056;3.656;2022-07-11T13:16:11;25.20;99.90
27544;DHT22;17996;51.056;3.656;2022-07-11T13:18:38;25.30;99.90
27544;DHT22;17996;51.056;3.656;2022-07-11T13:21:04;25.40;99.90
27544;DHT22;17996;51.056;3.656;2022-07-11T13:23:30;25.50;99.90
27544;DHT22;17996;51.056;3.656;2022-07-11T13:25:56;25.40;99.90
27544;DHT22;17996;51.056;3.656;2022-07-11T13:28:22;25.50;99.90
27544;DHT22;17996;51.056;3.656;2022-07-11T13:30:50;25.50;99.90
27544;DHT22;17996;51.056;3.656;2022-07-11T13:33:17;25.60;99.90
27544;DHT22;17996;51.056;3.656;2022-07-11T13:35:43;25.60;99.90
27544;DHT22;17996;51.056;3.656;2022-07-11T13:38:09;25.70;99.90
27544;DHT22;17996;51.056;3.656;2022-07-11T13:40:35;25.70;99.90
27544;DHT22;17996;51.056;3.656;2022-07-11T13:43:01;25.80;99.90
27544;DHT22;17996;51.056;3.656;2022-07-11T13:45:28;25.80;99.90
27544;DHT22;17996;51.056;3.656;2022-07-11T13:47:53;25.80;99.90
27544;DHT22;17996;51.056;3.656;2022-07-11T13:50:20;25.80;99.90
27544;DHT22;17996;51.056;3.656;2022-07-11T13:52:49;26.00;99.90
27544;DHT22;17996;51.056;3.656;2022-07-11T13:55:16;26.10;99.90
27544;DHT22;17996;51.056;3.656;2022-07-11T13:57:42;26.20;99.90
27544;DHT22;17996;51.056;3.656;2022-07-11T14:00:08;26.40;99.90
27544;DHT22;17996;51.056;3.656;2022-07-11T14:02:34;26.60;99.90
27544;DHT22;17996;51.056;3.656;2022-07-11T14:05:00;26.90;99.90
27544;DHT22;17996;51.056;3.656;2022-07-11T14:07:27;27.10;99.90
27544;DHT22;17996;51.056;3.656;2022-07-11T14:09:53;27.40;99.90
27544;DHT22;17996;51.056;3.656;2022-07-11T14:12:20;27.80;99.90
27544;DHT22;17996;51.056;3.656;2022-07-11T14:14:45;28.30;99.80
27544;DHT22;17996;51.056;3.656;2022-07-11T14:17:11;28.80;99.80
27544;DHT22;17996;51.056;3.656;2022-07-11T14:19:37;29.20;97.90
27544;DHT22;17996;51.056;3.656;2022-07-11T14:22:05;29.50;98.10
27544;DHT22;17996;51.056;3.656;2022-07-11T14:24:32;29.90;97.30
27544;DHT22;17996;51.056;3.656;2022-07-11T14:26:58;29.90;95.10
27544;DHT22;17996;51.056;3.656;2022-07-11T14:29:24;30.10;94.80
27544;DHT22;17996;51.056;3.656;2022-07-11T14:31:52;30.50;93.50
27544;DHT22;17996;51.056;3.656;2022-07-11T14:34:23;31.20;93.30
27544;DHT22;17996;51.056;3.656;2022-07-11T14:36:49;31.80;91.70
27544;DHT22;17996;51.056;3.656;2022-07-11T14:39:15;32.10;90.40
27544;DHT22;17996;51.056;3.656;2022-07-11T14:41:42;32.40;89.30
27544;DHT22;17996;51.056;3.656;2022-07-11T14:44:07;33.10;88.10
27544;DHT22;17996;51.056;3.656;2022-07-11T14:46:34;34.00;87.50
27544;DHT22;17996;51.056;3.656;2022-07-11T14:49:00;34.80;83.90
27544;DHT22;17996;51.056;3.656;2022-07-11T14:51:25;35.20;78.60
27544;DHT22;17996;51.056;3.656;2022-07-11T14:53:54;35.70;77.80
27544;DHT22;17996;51.056;3.656;2022-07-11T14:56:19;36.40;76.90
27544;DHT22;17996;51.056;3.656;2022-07-11T14:58:45;36.90;72.70
27544;DHT22;17996;51.056;3.656;2022-07-11T15:01:12;37.30;68.40
27544;DHT22;17996;51.056;3.656;2022-07-11T15:03:38;37.40;65.20
27544;DHT22;17996;51.056;3.656;2022-07-11T15:06:08;37.30;64.30
27544;DHT22;17996;51.056;3.656;2022-07-11T15:08:34;37.60;63.70
27544;DHT22;17996;51.056;3.656;2022-07-11T15:11:19;38.00;63.20
27544;DHT22;17996;51.056;3.656;2022-07-11T15:14:05;38.00;58.60
27544;DHT22;17996;51.056;3.656;2022-07-11T15:16:31;36.90;58.90
27544;DHT22;17996;51.056;3.656;2022-07-11T15:19:00;37.10;60.80
27544;DHT22;17996;51.056;3.656;2022-07-11T15:21:26;37.30;60.70
27544;DHT22;17996;51.056;3.656;2022-07-11T15:23:53;37.50;61.30
27544;DHT22;17996;51.056;3.656;2022-07-11T15:26:19;37.70;60.20
27544;DHT22;17996;51.056;3.656;2022-07-11T15:28:45;37.90;61.20
27544;DHT22;17996;51.056;3.656;2022-07-11T15:31:12;38.40;60.20
27544;DHT22;17996;51.056;3.656;2022-07-11T15:33:38;38.80;58.10
27544;DHT22;17996;51.056;3.656;2022-07-11T15:36:04;38.90;56.90
27544;DHT22;17996;51.056;3.656;2022-07-11T15:38:30;39.00;56.60
27544;DHT22;17996;51.056;3.656;2022-07-11T15:40:57;39.00;55.20
27544;DHT22;17996;51.056;3.656;2022-07-11T15:43:24;39.00;56.40
27544;DHT22;17996;51.056;3.656;2022-07-11T15:45:49;38.80;56.30
27544;DHT22;17996;51.056;3.656;2022-07-11T15:48:15;38.50;55.20
27544;DHT22;17996;51.056;3.656;2022-07-11T15:50:41;38.50;56.60
27544;DHT22;17996;51.056;3.656;2022-07-11T15:53:10;38.60;57.00
27544;DHT22;17996;51.056;3.656;2022-07-11T15:55:36;38.60;56.90
27544;DHT22;17996;51.056;3.656;2022-07-11T15:58:02;38.50;54.80
27544;DHT22;17996;51.056;3.656;2022-07-11T16:00:28;38.40;55.50
27544;DHT22;17996;51.056;3.656;2022-07-11T16:02:54;38.50;56.00
27544;DHT22;17996;51.056;3.656;2022-07-11T16:05:19;38.50;55.70
27544;DHT22;17996;51.056;3.656;2022-07-11T16:07:46;38.50;54.00
27544;DHT22;17996;51.056;3.656;2022-07-11T16:10:12;38.40;53.10
27544;DHT22;17996;51.056;3.656;2022-07-11T16:12:38;38.40;54.40